Time;durP1;ratioP1;P1;durP2;ratioP2;P2;SDS_P1;SDS_P2;PMS_P1;PMS_P2;Temp;Humidity;BMP_temperature;BMP_pressure;BME280_temperature;BME280_humidity;BME280_pressure;Samples;Min_cycle;Max_cycle;Signal;HPM_P1;HPM_P2
2024/01/23 00:01:25;;;;;;;21.45;3.92;;;6.50;99.90;;;;;;5082330;28;20436;-65
2024/01/23 00:03:51;;;;;;;15.95;3.05;;;6.40;99.90;;;;;;5080625;28;20124;-65
2024/01/23 00:06:18;;;;;;;14.98;3.63;;;6.50;99.90;;;;;;5078944;28;20478;-65
2024/01/23 00:08:43;;;;;;;10.88;2.20;;;6.50;99.90;;;;;;5080499;28;20044;-65
2024/01/23 00:11:09;;;;;;;16.42;2.78;;;6.50;99.90;;;;;;5080293;28;20035;-65
2024/01/23 00:13:34;;;;;;;15.75;3.20;;;6.50;99.90;;;;;;5113683;27;20042;-65
2024/01/23 00:16:00;;;;;;;12.63;3.53;;;6.60;99.90;;;;;;5081902;28;20040;-65
2024/01/23 00:18:26;;;;;;;19.95;2.72;;;6.50;99.90;;;;;;5080052;28;20052;-65
2024/01/23 00:20:51;;;;;;;18.13;3.33;;;6.50;99.90;;;;;;5081207;28;20520;-65
2024/01/23 00:23:17;;;;;;;15.68;2.83;;;6.50;99.90;;;;;;5081288;28;20062;-65
2024/01/23 00:25:42;;;;;;;14.55;2.60;;;6.50;99.90;;;;;;5081700;28;20160;-65
2024/01/23 00:28:09;;;;;;;18.83;2.75;;;6.60;99.90;;;;;;5082177;28;20397;-65
2024/01/23 00:30:35;;;;;;;19.05;3.10;;;6.50;99.90;;;;;;5084017;28;20036;-65
2024/01/23 00:33:02;;;;;;;13.73;2.80;;;6.50;99.90;;;;;;5085113;28;20124;-65
2024/01/23 00:35:28;;;;;;;13.65;3.28;;;6.50;99.90;;;;;;5082058;28;20374;-65
2024/01/23 00:37:53;;;;;;;11.27;2.10;;;6.60;99.90;;;;;;5078466;28;20051;-65
2024/01/23 00:40:19;;;;;;;19.77;3.22;;;6.60;99.90;;;;;;5079995;28;20036;-65
2024/01/23 00:42:45;;;;;;;12.63;2.28;;;6.60;99.90;;;;;;5081029;28;20420;-65
2024/01/23 00:45:10;;;;;;;14.68;3.05;;;6.70;99.90;;;;;;5078593;28;20040;-65
2024/01/23 00:47:36;;;;;;;17.48;3.15;;;6.70;99.90;;;;;;5082302;28;20082;-65
2024/01/23 00:50:01;;;;;;;10.98;2.58;;;6.70;99.90;;;;;;5114701;27;20076;-65
2024/01/23 00:52:27;;;;;;;15.07;2.22;;;6.60;99.90;;;;;;5079989;28;20042;-65
2024/01/23 00:54:58;;;;;;;20.08;3.40;;;6.70;99.90;;;;;;5075514;28;20043;-65
2024/01/23 00:57:24;;;;;;;17.42;3.35;;;6.70;99.90;;;;;;5081334;28;20041;-65
2024/01/23 00:59:49;;;;;;;14.90;2.88;;;6.70;99.90;;;;;;5080338;28;20066;-65
2024/01/23 01:02:15;;;;;;;13.85;2.50;;;6.60;99.90;;;;;;5109581;27;20119;-65
2024/01/23 01:04:42;;;;;;;11.32;3.15;;;6.60;99.90;;;;;;5082146;28;20032;-65
2024/01/23 01:07:08;;;;;;;10.10;2.72;;;6.60;99.90;;;;;;5080776;28;20050;-65
2024/01/23 01:09:33;;;;;;;21.02;3.85;;;6.50;99.90;;;;;;5079211;28;20059;-65
2024/01/23 01:11:59;;;;;;;16.30;2.85;;;6.50;99.90;;;;;;5082774;28;20038;-65
2024/01/23 01:14:24;;;;;;;10.63;1.67;;;6.50;99.90;;;;;;5108845;27;20036;-65
2024/01/23 01:16:50;;;;;;;12.00;2.20;;;6.50;99.90;;;;;;5081496;28;20070;-65
2024/01/23 01:19:16;;;;;;;12.07;2.30;;;6.60;99.90;;;;;;5074093;28;20054;-65
2024/01/23 01:21:41;;;;;;;20.65;2.55;;;6.50;99.90;;;;;;5079809;28;20138;-65
2024/01/23 01:24:07;;;;;;;16.15;2.20;;;6.60;99.90;;;;;;5079604;28;20071;-65
2024/01/23 01:26:33;;;;;;;10.88;1.90;;;6.60;99.90;;;;;;5080787;28;20055;-65
2024/01/23 01:28:58;;;;;;;17.27;2.45;;;6.60;99.90;;;;;;5081064;28;20044;-65
2024/01/23 01:31:24;;;;;;;17.90;3.35;;;6.60;99.90;;;;;;5080173;28;20040;-65
2024/01/23 01:33:50;;;;;;;21.27;3.63;;;6.60;99.90;;;;;;5079422;28;20040;-65
2024/01/23 01:36:15;;;;;;;11.57;2.80;;;6.60;99.90;;;;;;5081940;28;20093;-65
2024/01/23 01:38:41;;;;;;;15.85;2.88;;;6.60;99.90;;;;;;5079619;28;20039;-65
2024/01/23 01:41:06;;;;;;;18.25;2.35;;;6.70;99.90;;;;;;5077865;28;20040;-65
2024/01/23 01:43:32;;;;;;;19.98;3.17;;;6.60;99.90;;;;;;5082764;28;20492;-65
2024/01/23 01:46:27;;;;;;;21.80;3.28;;;6.70;99.90;;;;;;5079342;28;20036;-65
2024/01/23 01:48:53;;;;;;;15.88;2.33;;;6.60;99.90;;;;;;5070322;28;20048;-65
2024/01/23 01:51:25;;;;;;;18.42;2.70;;;6.60;99.90;;;;;;5063830;28;20036;-65
2024/01/23 01:53:51;;;;;;;14.48;2.30;;;6.60;99.90;;;;;;5111740;27;20094;-65
2024/01/23 01:56:22;;;;;;;14.63;2.58;;;6.50;99.90;;;;;;5078173;28;20043;-65
2024/01/23 01:58:48;;;;;;;13.48;2.60;;;6.50;99.90;;;;;;5082335;28;20079;-65
2024/01/23 02:01:14;;;;;;;19.17;3.25;;;6.50;99.90;;;;;;5085071;28;20408;-65
2024/01/23 02:03:39;;;;;;;21.17;3.08;;;6.40;99.90;;;;;;5085418;28;20036;-65
2024/01/23 02:06:06;;;;;;;20.33;3.03;;;6.40;99.90;;;;;;5067101;28;20044;-65
2024/01/23 02:08:34;;;;;;;20.48;2.88;;;6.40;99.90;;;;;;5081663;28;20035;-65
2024/01/23 02:11:01;;;;;;;10.68;2.65;;;6.40;99.90;;;;;;5086577;28;20048;-65
2024/01/23 02:13:27;;;;;;;14.32;2.80;;;6.30;99.90;;;;;;5082208;28;20367;-65
2024/01/23 02:15:53;;;;;;;17.50;3.83;;;6.30;99.90;;;;;;5085487;28;20039;-65
2024/01/23 02:18:19;;;;;;;15.50;3.55;;;6.30;99.90;;;;;;5082004;28;20492;-65
2024/01/23 02:20:45;;;;;;;18.02;3.40;;;6.30;99.90;;;;;;5082246;28;20098;-65
2024/01/23 02:23:13;;;;;;;24.20;4.05;;;6.30;99.90;;;;;;5081041;28;20059;-65
2024/01/23 02:25:40;;;;;;;17.38;3.88;;;6.30;99.90;;;;;;5050041;28;20040;-65
2024/01/23 02:28:05;;;;;;;14.40;2.88;;;6.30;99.90;;;;;;5086212;28;20029;-65
2024/01/23 02:30:33;;;;;;;12.80;3.25;;;6.20;99.90;;;;;;5066100;28;20186;-65
2024/01/23 02:32:58;;;;;;;15.52;2.83;;;6.20;99.90;;;;;;5082320;28;20074;-65
2024/01/23 02:35:24;;;;;;;18.65;3.25;;;6.20;99.90;;;;;;5084090;28;20037;-65
2024/01/23 02:37:49;;;;;;;17.33;3.03;;;6.20;99.90;;;;;;5081775;28;20134;-65
2024/01/23 02:40:15;;;;;;;17.88;2.88;;;6.20;99.90;;;;;;5084009;28;20052;-65
2024/01/23 02:42:41;;;;;;;18.15;2.92;;;6.20;99.90;;;;;;5083473;28;20044;-65
2024/01/23 02:45:06;;;;;;;20.55;4.07;;;6.20;99.90;;;;;;5082978;28;20036;-65
2024/01/23 02:47:32;;;;;;;17.25;3.33;;;6.10;99.90;;;;;;5084268;28;20561;-65
2024/01/23 02:49:58;;;;;;;17.17;3.95;;;6.20;99.90;;;;;;5086309;28;20037;-65
2024/01/23 02:52:27;;;;;;;18.73;4.50;;;6.10;99.90;;;;;;5081475;28;20043;-65
2024/01/23 02:54:53;;;;;;;13.63;2.97;;;6.10;99.90;;;;;;5082241;28;20060;-65
2024/01/23 02:57:18;;;;;;;20.80;3.78;;;6.10;99.90;;;;;;5113424;27;20072;-65
2024/01/23 02:59:44;;;;;;;12.43;3.03;;;6.10;99.90;;;;;;5080668;28;20439;-65
2024/01/23 03:02:10;;;;;;;20.88;4.60;;;6.10;99.90;;;;;;5081285;28;20596;-65
2024/01/23 03:04:35;;;;;;;16.70;3.22;;;6.10;99.90;;;;;;5066610;28;20067;-65
2024/01/23 03:07:01;;;;;;;24.95;3.70;;;6.10;99.90;;;;;;5080123;28;20066;-65
2024/01/23 03:09:27;;;;;;;17.65;3.40;;;6.10;99.90;;;;;;5114173;27;20047;-65
2024/01/23 03:11:53;;;;;;;15.27;3.03;;;6.20;99.90;;;;;;5082048;28;20024;-65
2024/01/23 03:14:19;;;;;;;20.33;4.18;;;6.20;99.90;;;;;;5081675;28;20048;-65
2024/01/23 03:16:45;;;;;;;15.25;2.70;;;6.20;99.90;;;;;;5083383;28;20390;-65
2024/01/23 03:19:10;;;;;;;20.05;5.00;;;6.20;99.90;;;;;;5080996;28;20398;-65
2024/01/23 03:21:36;;;;;;;16.35;3.42;;;6.30;99.90;;;;;;5083632;28;20075;-65
2024/01/23 03:24:02;;;;;;;19.55;3.03;;;6.30;99.90;;;;;;5079886;28;20117;-65
2024/01/23 03:26:27;;;;;;;19.20;3.53;;;6.30;99.90;;;;;;5116979;27;20044;-65
2024/01/23 03:28:53;;;;;;;19.95;3.90;;;6.40;99.90;;;;;;5082869;28;20044;-65
2024/01/23 03:31:19;;;;;;;18.17;2.72;;;6.40;99.90;;;;;;5068487;28;20098;-65
2024/01/23 03:33:46;;;;;;;16.33;3.03;;;6.40;99.90;;;;;;5081314;28;20063;-65
2024/01/23 03:36:12;;;;;;;16.98;3.53;;;6.40;99.90;;;;;;5079646;28;20048;-65
2024/01/23 03:38:38;;;;;;;14.80;2.90;;;6.40;99.90;;;;;;5114388;27;20082;-65
2024/01/23 03:41:03;;;;;;;18.60;2.85;;;6.40;99.90;;;;;;5084179;28;20044;-65
2024/01/23 03:43:29;;;;;;;18.60;3.58;;;6.50;99.90;;;;;;5080742;28;20131;-65
2024/01/23 03:45:54;;;;;;;29.70;3.97;;;6.50;99.90;;;;;;5082905;28;20045;-65
2024/01/23 03:48:20;;;;;;;21.50;3.50;;;6.50;99.90;;;;;;5082715;28;20037;-65
2024/01/23 03:50:45;;;;;;;22.75;4.65;;;6.50;99.90;;;;;;5111651;27;20028;-65
2024/01/23 03:53:11;;;;;;;25.00;3.65;;;6.50;99.90;;;;;;5082060;28;20057;-66
2024/01/23 03:55:37;;;;;;;22.05;3.97;;;6.50;99.90;;;;;;5078816;28;20629;-65
2024/01/23 03:58:02;;;;;;;17.92;3.20;;;6.50;99.90;;;;;;5112210;27;20041;-65
2024/01/23 04:00:28;;;;;;;22.10;3.70;;;6.60;99.90;;;;;;5084049;28;20044;-65
2024/01/23 04:02:55;;;;;;;17.98;3.08;;;6.60;99.90;;;;;;5079504;28;20048;-65
2024/01/23 04:05:20;;;;;;;20.50;4.15;;;6.60;99.90;;;;;;5080306;28;20381;-65
2024/01/23 04:07:47;;;;;;;19.85;4.03;;;6.50;99.90;;;;;;5080598;28;20044;-65
2024/01/23 04:10:13;;;;;;;20.58;4.50;;;6.60;99.90;;;;;;5079319;28;20115;-65
2024/01/23 04:12:40;;;;;;;22.63;4.07;;;6.60;99.90;;;;;;5080526;28;20222;-65
2024/01/23 04:15:06;;;;;;;16.30;3.17;;;6.60;99.90;;;;;;5080488;28;20028;-65
2024/01/23 04:17:32;;;;;;;19.70;3.80;;;6.60;99.90;;;;;;5108807;27;20044;-65
2024/01/23 04:19:58;;;;;;;19.55;4.38;;;6.70;99.90;;;;;;5081211;28;20062;-65
2024/01/23 04:22:23;;;;;;;24.15;4.18;;;6.70;99.90;;;;;;5066232;28;20513;-65
2024/01/23 04:24:49;;;;;;;21.48;3.85;;;6.60;99.90;;;;;;5081074;28;20044;-65
2024/01/23 04:27:15;;;;;;;21.15;4.20;;;6.60;99.90;;;;;;5080610;28;20509;-65
2024/01/23 04:29:41;;;;;;;18.92;3.38;;;6.70;99.90;;;;;;5081534;28;20501;-65
2024/01/23 04:32:07;;;;;;;19.27;3.15;;;6.70;99.90;;;;;;5079173;28;20037;-64
2024/01/23 04:34:32;;;;;;;21.80;3.53;;;6.70;99.90;;;;;;5085720;28;20043;-65
2024/01/23 04:36:58;;;;;;;21.02;3.63;;;6.70;99.90;;;;;;5081422;28;20151;-65
2024/01/23 04:39:23;;;;;;;24.30;4.38;;;6.80;99.90;;;;;;5079302;28;20071;-65
2024/01/23 04:41:49;;;;;;;22.25;5.85;;;6.80;99.90;;;;;;5067458;28;20044;-65
2024/01/23 04:44:14;;;;;;;20.85;4.22;;;6.80;99.90;;;;;;5076195;28;20674;-65
2024/01/23 04:46:40;;;;;;;21.92;4.10;;;6.80;99.90;;;;;;5077057;28;20037;-65
2024/01/23 04:49:06;;;;;;;18.77;4.03;;;6.80;99.90;;;;;;5079747;28;20031;-65
2024/01/23 04:51:31;;;;;;;17.67;3.60;;;6.70;99.90;;;;;;5080474;28;20166;-65
2024/01/23 04:53:57;;;;;;;24.00;4.43;;;6.70;99.90;;;;;;5079182;28;20135;-65
2024/01/23 04:56:22;;;;;;;23.48;4.13;;;6.80;99.90;;;;;;5111179;27;20512;-65
2024/01/23 04:58:57;;;;;;;23.75;3.97;;;6.70;99.90;;;;;;5076424;28;20059;-65
2024/01/23 05:01:23;;;;;;;19.48;3.67;;;6.70;99.90;;;;;;5085133;28;20548;-66
2024/01/23 05:03:48;;;;;;;20.52;3.63;;;6.70;99.90;;;;;;5076965;28;20036;-65
2024/01/23 05:06:14;;;;;;;22.13;5.18;;;6.70;99.90;;;;;;5081974;28;20044;-65
2024/01/23 05:08:39;;;;;;;20.35;4.13;;;6.80;99.90;;;;;;5082992;28;20036;-65
2024/01/23 05:11:05;;;;;;;22.23;4.50;;;6.80;99.90;;;;;;5080133;28;20035;-65
2024/01/23 05:13:31;;;;;;;23.85;4.68;;;6.80;99.90;;;;;;5067593;28;20122;-65
2024/01/23 05:15:56;;;;;;;25.65;4.20;;;6.80;99.90;;;;;;5078096;28;20593;-65
2024/01/23 05:18:22;;;;;;;21.42;3.97;;;6.80;99.90;;;;;;5074578;28;20055;-65
2024/01/23 05:20:48;;;;;;;27.58;4.65;;;6.80;99.90;;;;;;5079309;28;20083;-65
2024/01/23 05:23:13;;;;;;;24.08;4.55;;;6.70;99.90;;;;;;5078839;28;20116;-65
2024/01/23 05:25:41;;;;;;;25.48;4.20;;;6.80;99.90;;;;;;5074726;28;20043;-65
2024/01/23 05:28:06;;;;;;;19.67;3.85;;;6.80;99.90;;;;;;5075292;28;20055;-65
2024/01/23 05:30:33;;;;;;;22.90;5.05;;;6.80;99.90;;;;;;5076809;28;20036;-65
2024/01/23 05:32:58;;;;;;;14.63;3.33;;;6.80;99.90;;;;;;5118204;27;20064;-65
2024/01/23 05:35:24;;;;;;;23.60;4.28;;;6.80;99.90;;;;;;5101161;28;20075;-65
2024/01/23 05:37:49;;;;;;;25.23;4.90;;;6.80;99.90;;;;;;5083463;28;20048;-66
2024/01/23 05:40:16;;;;;;;24.92;5.15;;;6.80;99.90;;;;;;5080968;28;20097;-65
2024/01/23 05:42:41;;;;;;;25.60;5.28;;;6.80;99.90;;;;;;5084813;28;20420;-65
2024/01/23 05:45:08;;;;;;;24.48;4.90;;;6.80;99.90;;;;;;5086528;28;20031;-65
2024/01/23 05:47:34;;;;;;;23.90;4.78;;;6.80;99.90;;;;;;5083313;28;20059;-65
2024/01/23 05:50:00;;;;;;;27.02;4.95;;;6.80;99.90;;;;;;5081341;28;20382;-65
2024/01/23 05:52:26;;;;;;;24.02;5.25;;;6.90;99.90;;;;;;5084110;28;21577;-65
2024/01/23 05:54:52;;;;;;;28.65;6.57;;;6.80;99.90;;;;;;5085186;28;20418;-65
2024/01/23 05:57:18;;;;;;;30.33;4.90;;;6.90;99.90;;;;;;5081307;28;20033;-65
2024/01/23 05:59:43;;;;;;;26.52;5.05;;;6.90;99.90;;;;;;5089053;28;20044;-65
2024/01/23 06:02:09;;;;;;;23.65;5.22;;;6.80;99.90;;;;;;5081477;28;20040;-65
2024/01/23 06:04:35;;;;;;;23.85;5.10;;;6.90;99.90;;;;;;5085844;28;20493;-65
2024/01/23 06:07:00;;;;;;;22.08;5.18;;;6.90;99.90;;;;;;5079559;28;20051;-65
2024/01/23 06:09:29;;;;;;;18.42;4.40;;;6.90;99.90;;;;;;5079700;28;20623;-65
2024/01/23 06:11:55;;;;;;;24.17;4.38;;;6.90;99.90;;;;;;5074898;28;20127;-65
2024/01/23 06:14:20;;;;;;;30.42;5.75;;;6.80;99.90;;;;;;5081519;28;20628;-65
2024/01/23 06:16:46;;;;;;;32.17;6.30;;;6.80;99.90;;;;;;5089175;28;20028;-65
2024/01/23 06:19:12;;;;;;;34.88;6.95;;;6.80;99.90;;;;;;5085066;27;20487;-65
2024/01/23 06:21:39;;;;;;;28.50;4.85;;;6.70;99.90;;;;;;5079823;28;20122;-65
2024/01/23 06:24:05;;;;;;;28.35;5.30;;;6.70;99.90;;;;;;5086556;28;20087;-65
2024/01/23 06:26:32;;;;;;;36.78;6.70;;;6.70;99.90;;;;;;5085505;28;20073;-65
2024/01/23 06:28:58;;;;;;;25.70;5.18;;;6.80;99.90;;;;;;5069094;28;20055;-65
2024/01/23 06:31:26;;;;;;;23.25;5.30;;;6.60;99.90;;;;;;5084573;28;20036;-65
2024/01/23 06:33:52;;;;;;;23.63;4.55;;;6.70;99.90;;;;;;5086131;28;20068;-65
2024/01/23 06:36:18;;;;;;;33.78;5.63;;;6.60;99.90;;;;;;5070819;28;20123;-65
2024/01/23 06:38:43;;;;;;;25.02;5.00;;;6.60;99.90;;;;;;5082386;28;20469;-65
2024/01/23 06:41:09;;;;;;;24.02;4.38;;;6.60;99.90;;;;;;5085945;28;20149;-65
2024/01/23 06:43:35;;;;;;;29.38;5.88;;;6.50;99.90;;;;;;5082103;28;20040;-65
2024/01/23 06:46:01;;;;;;;37.03;6.95;;;6.60;99.90;;;;;;5082459;28;20055;-65
2024/01/23 06:48:27;;;;;;;25.52;7.30;;;6.50;99.90;;;;;;5081500;28;20041;-65
2024/01/23 06:50:52;;;;;;;26.25;5.30;;;6.60;99.90;;;;;;5083634;28;20032;-65
2024/01/23 06:53:18;;;;;;;28.77;5.93;;;6.50;99.90;;;;;;5078251;28;20044;-65
2024/01/23 06:55:44;;;;;;;35.85;5.75;;;6.50;99.90;;;;;;5112601;27;20051;-65
2024/01/23 06:58:10;;;;;;;29.55;5.78;;;6.50;99.90;;;;;;5087255;28;20062;-65
2024/01/23 07:00:35;;;;;;;29.75;6.82;;;6.50;99.90;;;;;;5082565;28;20052;-65
2024/01/23 07:03:01;;;;;;;30.17;5.47;;;6.40;99.90;;;;;;5079105;28;20517;-65
2024/01/23 07:05:26;;;;;;;29.50;6.40;;;6.30;99.90;;;;;;5113062;27;20039;-66
2024/01/23 07:07:54;;;;;;;33.15;6.25;;;6.30;99.90;;;;;;5082790;28;20044;-65
2024/01/23 07:10:20;;;;;;;28.95;5.93;;;6.30;99.90;;;;;;5106999;27;20039;-65
2024/01/23 07:12:46;;;;;;;25.08;5.10;;;6.30;99.90;;;;;;5075141;28;20036;-65
2024/01/23 07:15:11;;;;;;;25.35;4.60;;;6.20;99.90;;;;;;5113557;27;20048;-65
2024/01/23 07:17:37;;;;;;;30.10;6.15;;;6.20;99.90;;;;;;5081082;28;20546;-65
2024/01/23 07:20:04;;;;;;;25.90;4.18;;;6.20;99.90;;;;;;5082311;28;20021;-65
2024/01/23 07:22:30;;;;;;;28.55;6.07;;;6.20;99.90;;;;;;5080925;28;20119;-65
2024/01/23 07:24:57;;;;;;;34.83;5.93;;;6.10;99.90;;;;;;5078581;28;20119;-65
2024/01/23 07:27:23;;;;;;;27.98;5.00;;;6.00;99.90;;;;;;5080361;28;20044;-66
2024/01/23 07:29:48;;;;;;;23.60;5.80;;;6.10;99.90;;;;;;5080776;28;20040;-65
2024/01/23 07:32:14;;;;;;;26.98;4.85;;;6.10;99.90;;;;;;5070733;28;20043;-66
2024/01/23 07:34:39;;;;;;;28.65;5.57;;;6.00;99.90;;;;;;5081423;28;20056;-64
2024/01/23 07:37:05;;;;;;;25.85;5.45;;;6.00;99.90;;;;;;5070418;28;20047;-65
2024/01/23 07:39:30;;;;;;;26.20;5.22;;;6.00;99.90;;;;;;5111837;27;20037;-65
2024/01/23 07:41:57;;;;;;;30.40;5.72;;;6.00;99.90;;;;;;5079933;28;20054;-65
2024/01/23 07:44:23;;;;;;;21.75;4.88;;;6.00;99.90;;;;;;5077469;28;20132;-65
2024/01/23 07:46:48;;;;;;;26.75;5.32;;;6.00;99.90;;;;;;5077329;28;20142;-65
2024/01/23 07:49:15;;;;;;;29.88;5.85;;;5.90;99.90;;;;;;5077339;28;20040;-65
2024/01/23 07:51:48;;;;;;;29.60;5.18;;;6.00;99.90;;;;;;5077202;28;20028;-65
2024/01/23 07:54:13;;;;;;;30.77;4.78;;;6.00;99.90;;;;;;5114278;27;20032;-65
2024/01/23 07:56:39;;;;;;;29.08;5.18;;;6.00;99.90;;;;;;5078063;28;20086;-65
2024/01/23 07:59:05;;;;;;;30.90;6.30;;;6.00;99.90;;;;;;5079231;28;20043;-65
2024/01/23 08:01:31;;;;;;;28.77;4.75;;;6.00;99.90;;;;;;5076676;28;20047;-65
2024/01/23 08:03:57;;;;;;;31.05;5.53;;;6.00;99.90;;;;;;5079441;28;20491;-65
2024/01/23 08:06:23;;;;;;;26.45;6.53;;;5.90;99.90;;;;;;5109194;27;20510;-65
2024/01/23 08:08:50;;;;;;;37.45;5.35;;;6.00;99.90;;;;;;5108823;27;20119;-65
2024/01/23 08:11:17;;;;;;;28.25;5.03;;;6.00;99.90;;;;;;5071057;28;20122;-65
2024/01/23 08:13:42;;;;;;;30.83;6.20;;;6.00;99.90;;;;;;5076158;28;20111;-65
2024/01/23 08:16:09;;;;;;;27.70;4.35;;;6.00;99.90;;;;;;5074978;28;20096;-65
2024/01/23 08:18:36;;;;;;;32.28;5.32;;;6.00;99.90;;;;;;5078906;28;20043;-65
2024/01/23 08:21:02;;;;;;;27.05;6.28;;;6.00;99.90;;;;;;5060423;28;20181;-65
2024/01/23 08:23:28;;;;;;;34.65;4.63;;;6.10;99.90;;;;;;5073506;28;20482;-65
2024/01/23 08:25:54;;;;;;;24.05;4.53;;;6.00;99.90;;;;;;5077362;28;20043;-66
2024/01/23 08:28:19;;;;;;;30.23;5.03;;;6.00;99.90;;;;;;5072658;28;20378;-65
2024/01/23 08:30:45;;;;;;;28.23;4.93;;;6.10;99.90;;;;;;5075529;28;20129;-65
2024/01/23 08:33:17;;;;;;;28.92;6.00;;;6.10;99.90;;;;;;5074999;28;20043;-65
2024/01/23 08:35:43;;;;;;;29.00;5.88;;;6.10;99.90;;;;;;5074703;28;20048;-65
2024/01/23 08:38:09;;;;;;;39.33;6.88;;;6.10;99.90;;;;;;5090643;27;20065;-65
2024/01/23 08:40:35;;;;;;;26.83;4.78;;;6.20;99.90;;;;;;5074758;28;20075;-65
2024/01/23 08:43:01;;;;;;;33.58;6.10;;;6.10;99.90;;;;;;5073823;28;20043;-65
2024/01/23 08:45:27;;;;;;;26.85;5.63;;;6.20;99.90;;;;;;5074964;28;20036;-65
2024/01/23 08:47:53;;;;;;;28.42;4.60;;;6.30;99.90;;;;;;5073496;28;20410;-65
2024/01/23 08:50:18;;;;;;;27.00;5.78;;;6.30;99.90;;;;;;5076390;28;20390;-65
2024/01/23 08:52:45;;;;;;;26.17;6.45;;;6.30;99.90;;;;;;5077096;28;20040;-65
2024/01/23 08:55:11;;;;;;;23.98;5.45;;;6.30;99.90;;;;;;5073945;28;20102;-65
2024/01/23 08:57:36;;;;;;;26.50;5.22;;;6.40;99.90;;;;;;5076363;28;20513;-65
2024/01/23 09:00:04;;;;;;;31.65;6.85;;;6.30;99.90;;;;;;5074372;28;20097;-65
2024/01/23 09:02:29;;;;;;;27.08;5.18;;;6.40;99.90;;;;;;5076245;28;20111;-65
2024/01/23 09:04:55;;;;;;;32.67;5.32;;;6.40;99.90;;;;;;5075994;28;20118;-65
2024/01/23 09:07:22;;;;;;;28.67;4.85;;;6.50;99.90;;;;;;5075128;28;20403;-65
2024/01/23 09:09:48;;;;;;;27.95;5.85;;;6.50;99.90;;;;;;5075993;28;20155;-65
2024/01/23 09:12:16;;;;;;;30.08;4.97;;;6.50;99.90;;;;;;5113032;27;20036;-65
2024/01/23 09:14:45;;;;;;;33.70;6.53;;;6.50;99.90;;;;;;5077111;28;20075;-65
2024/01/23 09:17:11;;;;;;;24.17;5.25;;;6.60;99.90;;;;;;5083498;28;20105;-65
2024/01/23 09:19:37;;;;;;;30.33;5.43;;;6.60;99.90;;;;;;5107758;27;20120;-65
2024/01/23 09:22:04;;;;;;;25.33;5.78;;;6.70;99.90;;;;;;5078790;28;20491;-65
2024/01/23 09:24:30;;;;;;;31.55;6.18;;;6.70;99.90;;;;;;5092738;28;20051;-65
2024/01/23 09:26:59;;;;;;;31.77;5.90;;;6.70;99.90;;;;;;5074349;28;20149;-65
2024/01/23 09:29:26;;;;;;;26.58;4.53;;;6.80;99.90;;;;;;5073027;28;20028;-66
2024/01/23 09:31:52;;;;;;;22.35;5.30;;;7.10;99.90;;;;;;5073432;28;20044;-66
2024/01/23 09:34:18;;;;;;;28.13;6.22;;;6.80;99.90;;;;;;5077580;28;20114;-65
2024/01/23 09:36:43;;;;;;;28.88;5.00;;;6.90;99.90;;;;;;5069544;28;20141;-65
2024/01/23 09:39:13;;;;;;;25.15;5.30;;;6.90;99.90;;;;;;5103054;27;20066;-65
2024/01/23 09:41:49;;;;;;;29.90;5.55;;;6.90;99.90;;;;;;5075009;28;20040;-65
2024/01/23 09:44:15;;;;;;;26.63;5.88;;;7.00;99.90;;;;;;5072765;28;20723;-66
2024/01/23 09:46:44;;;;;;;27.88;5.05;;;7.00;99.90;;;;;;5074281;28;20040;-65
2024/01/23 09:49:11;;;;;;;29.17;5.28;;;7.00;99.90;;;;;;5073534;28;20047;-66
2024/01/23 09:51:41;;;;;;;29.35;5.13;;;7.10;99.90;;;;;;5076906;28;20266;-65
2024/01/23 09:54:10;;;;;;;28.60;5.88;;;7.20;99.90;;;;;;5067559;28;20046;-65
2024/01/23 09:56:36;;;;;;;30.17;5.47;;;7.20;99.90;;;;;;5058620;28;20045;-65
2024/01/23 09:59:03;;;;;;;28.35;5.82;;;7.30;99.90;;;;;;5076859;28;20678;-66
2024/01/23 10:01:29;;;;;;;30.52;5.00;;;7.30;99.90;;;;;;5078641;28;20195;-66
2024/01/23 10:03:57;;;;;;;22.85;5.20;;;7.30;99.90;;;;;;5079737;28;20044;-65
2024/01/23 10:06:24;;;;;;;27.45;5.43;;;7.30;99.90;;;;;;5106152;27;20048;-65
2024/01/23 10:08:49;;;;;;;26.35;5.07;;;7.30;99.90;;;;;;5077115;28;20239;-65
2024/01/23 10:11:15;;;;;;;25.23;5.45;;;7.30;99.90;;;;;;5104397;27;20040;-65
2024/01/23 10:13:42;;;;;;;26.67;5.55;;;7.30;99.90;;;;;;5078983;28;20054;-65
2024/01/23 10:16:10;;;;;;;28.58;5.18;;;7.30;99.90;;;;;;5079103;28;20048;-65
2024/01/23 10:18:36;;;;;;;31.35;7.40;;;7.30;99.90;;;;;;5081064;28;20204;-65
2024/01/23 10:21:01;;;;;;;27.48;5.03;;;7.40;99.90;;;;;;5078644;28;20040;-66
2024/01/23 10:23:27;;;;;;;32.63;6.45;;;7.40;99.90;;;;;;5079561;28;20182;-65
2024/01/23 10:25:54;;;;;;;24.98;5.55;;;7.40;99.90;;;;;;5080110;28;20479;-65
2024/01/23 10:28:22;;;;;;;41.58;7.40;;;7.50;99.90;;;;;;5078423;28;20158;-66
2024/01/23 10:30:48;;;;;;;25.25;5.35;;;7.50;99.90;;;;;;5081082;28;20036;-65
2024/01/23 10:33:14;;;;;;;32.55;5.25;;;7.40;99.90;;;;;;5079574;28;20046;-66
2024/01/23 10:35:41;;;;;;;27.17;6.00;;;7.50;99.90;;;;;;5080370;28;20039;-65
2024/01/23 10:38:10;;;;;;;32.50;4.95;;;7.60;99.90;;;;;;5065610;28;20046;-65
2024/01/23 10:40:37;;;;;;;27.50;5.57;;;7.60;99.90;;;;;;5074751;28;20040;-65
2024/01/23 10:43:04;;;;;;;28.10;5.45;;;7.60;99.90;;;;;;5079663;28;20040;-65
2024/01/23 10:45:31;;;;;;;24.75;4.35;;;7.70;99.90;;;;;;5068382;28;20058;-65
2024/01/23 10:47:59;;;;;;;25.90;5.05;;;7.70;99.90;;;;;;5081755;28;20123;-65
2024/01/23 10:50:25;;;;;;;28.42;7.45;;;7.80;99.90;;;;;;5081473;28;20032;-65
2024/01/23 10:52:53;;;;;;;31.73;4.75;;;7.80;99.90;;;;;;5081004;28;20964;-65
2024/01/23 10:55:21;;;;;;;25.90;5.00;;;7.80;99.90;;;;;;5081600;28;20036;-66
2024/01/23 10:57:48;;;;;;;27.52;7.50;;;7.80;99.90;;;;;;5109806;27;20043;-66
2024/01/23 11:00:16;;;;;;;23.02;4.78;;;7.90;99.90;;;;;;5071131;28;20524;-66
2024/01/23 11:02:52;;;;;;;29.55;6.28;;;8.10;99.90;;;;;;5078907;28;20087;-66
2024/01/23 11:05:23;;;;;;;27.88;6.30;;;8.20;99.90;;;;;;5110223;27;20063;-65
2024/01/23 11:08:02;;;;;;;27.20;6.60;;;8.10;99.90;;;;;;5077387;28;20049;-65
2024/01/23 11:10:41;;;;;;;24.10;5.32;;;8.30;99.90;;;;;;5110614;27;20032;-65
2024/01/23 11:13:30;;;;;;;25.85;4.10;;;8.20;99.90;;;;;;5079006;28;20071;-65
2024/01/23 11:15:57;;;;;;;24.85;5.32;;;8.30;99.90;;;;;;5076213;28;20051;-66
2024/01/23 11:18:28;;;;;;;21.65;4.47;;;8.40;99.90;;;;;;5084347;28;20173;-65
2024/01/23 11:21:23;;;;;;;34.50;5.95;;;8.50;99.90;;;;;;5085900;28;20078;-65
2024/01/23 11:23:58;;;;;;;24.42;4.85;;;8.40;99.90;;;;;;5073839;28;20048;-65
2024/01/23 11:26:26;;;;;;;27.52;5.70;;;8.40;99.90;;;;;;5084123;28;20077;-65
2024/01/23 11:29:02;;;;;;;22.83;4.65;;;8.40;99.90;;;;;;5079298;28;20614;-65
2024/01/23 11:31:34;;;;;;;21.65;5.03;;;8.30;99.90;;;;;;5080771;28;20440;-65
2024/01/23 11:34:23;;;;;;;22.50;3.88;;;8.20;99.90;;;;;;5046890;28;20055;-65
2024/01/23 11:36:49;;;;;;;27.48;5.40;;;8.30;99.90;;;;;;5068683;28;20055;-65
2024/01/23 11:39:15;;;;;;;29.48;5.80;;;8.30;99.90;;;;;;5082102;28;20043;-65
2024/01/23 11:41:48;;;;;;;22.75;5.15;;;8.20;99.90;;;;;;5083531;28;20039;-65
2024/01/23 11:44:15;;;;;;;23.75;4.68;;;8.20;99.90;;;;;;5078099;28;20164;-65
2024/01/23 11:46:42;;;;;;;23.45;5.18;;;8.20;99.90;;;;;;5081636;28;20044;-65
2024/01/23 11:49:10;;;;;;;25.33;6.35;;;8.20;99.90;;;;;;5078598;28;20043;-65
2024/01/23 11:51:37;;;;;;;24.38;5.45;;;8.20;99.90;;;;;;5080611;28;20043;-65
2024/01/23 11:54:09;;;;;;;25.70;5.15;;;8.20;99.90;;;;;;5081196;28;20482;-65
2024/01/23 11:56:36;;;;;;;25.35;5.45;;;8.10;99.90;;;;;;5078994;28;20040;-65
2024/01/23 11:59:02;;;;;;;24.05;4.30;;;8.20;99.90;;;;;;5070607;28;20047;-65
2024/01/23 12:01:29;;;;;;;21.40;4.00;;;8.10;99.90;;;;;;5079002;28;20036;-65
2024/01/23 12:03:56;;;;;;;24.13;4.93;;;8.20;99.90;;;;;;5075831;28;20402;-65
2024/01/23 12:06:23;;;;;;;21.95;5.15;;;8.20;99.90;;;;;;5063928;28;20123;-65
2024/01/23 12:08:50;;;;;;;26.95;5.93;;;8.30;99.90;;;;;;5078498;28;20044;-65
2024/01/23 12:11:17;;;;;;;19.10;4.18;;;8.30;99.90;;;;;;5060430;28;20044;-66
2024/01/23 12:13:50;;;;;;;29.58;5.65;;;8.30;99.90;;;;;;5077219;28;20450;-66
2024/01/23 12:16:17;;;;;;;25.35;5.45;;;8.40;99.90;;;;;;5110226;27;20047;-65
2024/01/23 12:18:44;;;;;;;24.58;4.95;;;8.50;99.90;;;;;;5082527;28;20068;-65
2024/01/23 12:21:11;;;;;;;24.98;5.65;;;8.50;99.90;;;;;;5075398;28;20044;-65
2024/01/23 12:23:37;;;;;;;34.65;5.65;;;8.60;99.90;;;;;;5071413;28;20036;-65
2024/01/23 12:26:04;;;;;;;32.13;5.75;;;8.60;99.90;;;;;;5074970;28;20086;-65
2024/01/23 12:28:32;;;;;;;20.88;4.53;;;8.60;99.90;;;;;;5077828;28;20043;-65
2024/01/23 12:30:58;;;;;;;30.55;5.47;;;8.70;99.90;;;;;;5079631;28;20128;-65
2024/01/23 12:33:25;;;;;;;27.15;4.55;;;8.70;99.90;;;;;;5076728;28;20477;-66
2024/01/23 12:35:52;;;;;;;26.65;5.15;;;8.70;99.90;;;;;;5074888;28;20379;-65
2024/01/23 12:38:19;;;;;;;24.17;5.63;;;8.70;99.90;;;;;;5110302;27;20048;-65
2024/01/23 12:40:45;;;;;;;27.55;5.95;;;8.70;99.90;;;;;;5078123;28;20054;-65
2024/01/23 12:43:11;;;;;;;30.13;7.15;;;8.70;99.90;;;;;;5110567;27;20075;-65
2024/01/23 12:45:38;;;;;;;26.05;5.10;;;8.70;99.90;;;;;;5076844;28;20067;-65